KHOP

Campbell AAF (Fort Campbell) Airport

Fort Campbell/Hopkinsville, Kentucky, USA
METAR KHOP 221356Z AUTO 00000KT 10SM FEW220 06/02 A3029 RMK AO2 SLP262 T00590022 FZRANO $
Observed Flight Rules
Oct-22 @ 13:56 UTC (25 minutes ago) Visual Flight Rules
Visibility Clouds
10 miles
  • Few at 22,000' AGL
Temperatures Readings
Current 6°C / 43°F
Dewpoint 2°C / 36°F
Humidity 76%
Altimeter 30.29" Hg
Pressure 1026.2 hPa
Elevation 174
METAR KHOP 221356Z AUTO 00000KT 10SM FEW220 06/02 A3029 RMK AO2 SLP262 T00590022 FZRANO $
Observed Flight Rules
Oct-22 @ 13:56 UTC
(25 minutes ago)
VFR
Clouds
  • Few at 22,000' AGL
Temperature Dewpoint
6°C / 43°F 2°C / 36°F
Humidity Altimeter Pressure
76% 30.29" Hg 1026.2 hPa